createdAt,value
2023-02-11T00:00:45.574Z,13.65
2023-02-11T00:03:12.884Z,13.48
2023-02-11T00:05:40.175Z,9.48
2023-02-11T00:08:07.494Z,7.65
2023-02-11T00:10:34.709Z,8.32
2023-02-11T00:13:01.950Z,11.93
2023-02-11T00:15:29.274Z,7.40
2023-02-11T00:17:56.506Z,9.07
2023-02-11T00:20:23.720Z,7.00
2023-02-11T00:22:50.930Z,10.68
2023-02-11T00:25:18.132Z,7.72
2023-02-11T00:27:45.344Z,8.13
2023-02-11T00:30:13.494Z,8.80
2023-02-11T00:32:42.696Z,9.98
2023-02-11T00:35:09.900Z,10.60
2023-02-11T00:37:37.240Z,9.10
2023-02-11T00:40:06.849Z,7.82
2023-02-11T00:42:35.761Z,5.65
2023-02-11T00:45:03.806Z,7.57
2023-02-11T00:47:31.050Z,9.68
2023-02-11T00:49:58.352Z,5.78
2023-02-11T00:52:28.277Z,7.18
2023-02-11T00:54:55.521Z,10.10
2023-02-11T00:57:22.905Z,6.03
2023-02-11T00:59:50.823Z,7.00
2023-02-11T01:02:19.269Z,8.18
2023-02-11T01:04:47.695Z,6.78
2023-02-11T01:07:14.985Z,7.30
2023-02-11T01:09:42.241Z,7.25
2023-02-11T01:12:09.516Z,12.18
2023-02-11T01:14:36.790Z,9.43
2023-02-11T01:17:05.921Z,9.10
2023-02-11T01:19:33.397Z,7.80
2023-02-11T01:22:00.638Z,10.55
2023-02-11T01:24:28.300Z,7.30
2023-02-11T01:26:55.957Z,9.10
2023-02-11T01:29:24.722Z,9.77
2023-02-11T01:31:55.099Z,12.32
2023-02-11T01:34:22.419Z,11.02
2023-02-11T01:36:50.527Z,10.35
2023-02-11T01:39:17.785Z,8.80
2023-02-11T01:41:46.936Z,10.75
2023-02-11T01:44:34.624Z,8.77
2023-02-11T01:47:04.849Z,10.85
2023-02-11T01:49:36.572Z,6.53
2023-02-11T01:52:06.853Z,8.77
2023-02-11T01:54:59.324Z,10.52
2023-02-11T01:57:29.212Z,8.95
2023-02-11T02:00:26.296Z,9.38
2023-02-11T02:02:58.921Z,8.93
2023-02-11T02:05:39.200Z,10.40
2023-02-11T02:08:09.526Z,13.85
2023-02-11T02:10:40.355Z,11.60
2023-02-11T02:13:07.699Z,8.23
2023-02-11T02:15:39.438Z,13.65
2023-02-11T02:18:32.483Z,9.80
2023-02-11T02:21:36.864Z,11.90
2023-02-11T02:24:14.223Z,11.02
2023-02-11T02:27:06.650Z,12.00
2023-02-11T02:29:54.737Z,12.18
2023-02-11T02:32:40.436Z,10.90
2023-02-11T02:35:20.014Z,10.82
2023-02-11T02:38:13.296Z,11.40
2023-02-11T02:41:10.108Z,16.25
2023-02-11T02:43:41.180Z,11.63
2023-02-11T02:46:19.349Z,11.52
2023-02-11T02:48:49.532Z,13.32
2023-02-11T02:51:16.757Z,10.27
2023-02-11T02:54:05.002Z,8.88
2023-02-11T02:56:40.867Z,12.52
2023-02-11T02:59:22.237Z,11.32
2023-02-11T03:02:16.780Z,13.38
2023-02-11T03:05:18.630Z,13.57
2023-02-11T03:08:14.372Z,11.65
2023-02-11T03:10:49.807Z,13.07
2023-02-11T03:13:21.780Z,10.95
2023-02-11T03:15:53.883Z,12.80
2023-02-11T03:18:25.299Z,16.60
2023-02-11T03:20:54.481Z,12.93
2023-02-11T03:23:34.984Z,17.00
2023-02-11T03:26:34.607Z,13.25
2023-02-11T03:29:10.020Z,17.65
2023-02-11T03:32:12.373Z,12.40
2023-02-11T03:34:54.830Z,18.13
2023-02-11T03:37:35.399Z,10.45
2023-02-11T03:40:05.340Z,8.27
2023-02-11T03:42:46.186Z,10.02
2023-02-11T03:45:18.020Z,10.82
2023-02-11T03:47:50.138Z,11.50
2023-02-11T03:50:19.156Z,11.65
2023-02-11T03:52:48.312Z,10.52
2023-02-11T03:55:20.995Z,11.95
2023-02-11T03:57:48.856Z,11.55
2023-02-11T04:00:16.456Z,9.70
2023-02-11T04:02:44.410Z,11.95
2023-02-11T04:05:15.787Z,9.20
2023-02-11T04:07:43.130Z,10.48
2023-02-11T04:10:12.116Z,7.65
2023-02-11T04:12:39.368Z,11.80
2023-02-11T04:15:07.220Z,10.60
2023-02-11T04:17:34.484Z,10.02
2023-02-11T04:20:01.874Z,7.78
2023-02-11T04:22:29.636Z,8.35
2023-02-11T04:24:56.878Z,9.05
2023-02-11T04:27:24.062Z,8.57
2023-02-11T04:29:51.348Z,8.73
2023-02-11T04:32:18.753Z,8.02
2023-02-11T04:34:45.992Z,10.98
2023-02-11T04:37:13.339Z,11.93
2023-02-11T04:39:40.549Z,9.00
2023-02-11T04:42:07.760Z,9.38
2023-02-11T04:44:35.102Z,7.00
2023-02-11T04:47:02.519Z,6.80
2023-02-11T04:49:29.986Z,8.65
2023-02-11T04:51:57.285Z,8.52
2023-02-11T04:54:24.719Z,8.05
2023-02-11T04:56:51.899Z,6.78
2023-02-11T04:59:19.165Z,8.13
2023-02-11T05:01:46.372Z,9.68
2023-02-11T05:04:13.716Z,8.43
2023-02-11T05:06:41.024Z,6.85
2023-02-11T05:09:08.450Z,9.80
2023-02-11T05:11:36.864Z,8.25
2023-02-11T05:14:04.116Z,8.95
2023-02-11T05:16:31.562Z,9.88
2023-02-11T05:18:58.937Z,8.40
2023-02-11T05:21:26.194Z,12.85
2023-02-11T05:23:53.375Z,8.80
2023-02-11T05:26:20.787Z,10.18
2023-02-11T05:28:48.322Z,9.00
2023-02-11T05:31:16.931Z,8.13
2023-02-11T05:33:44.214Z,5.53
2023-02-11T05:36:13.595Z,9.23
2023-02-11T05:38:42.547Z,9.32
2023-02-11T05:41:10.960Z,5.55
2023-02-11T05:43:38.368Z,8.05
2023-02-11T05:46:06.121Z,11.07
2023-02-11T05:48:33.905Z,14.45
2023-02-11T05:51:01.239Z,11.43
2023-02-11T05:53:28.458Z,10.38
2023-02-11T05:55:55.664Z,8.63
2023-02-11T05:58:22.921Z,6.35
2023-02-11T06:00:50.142Z,6.28
2023-02-11T06:03:17.442Z,11.68
2023-02-11T06:05:45.553Z,7.72
2023-02-11T06:08:12.838Z,12.05
2023-02-11T06:10:42.537Z,9.27
2023-02-11T06:13:09.757Z,10.73
2023-02-11T06:15:37.059Z,6.05
2023-02-11T06:18:04.628Z,10.73
2023-02-11T06:20:31.923Z,10.70
2023-02-11T06:22:59.209Z,11.20
2023-02-11T06:25:26.441Z,8.77
2023-02-11T06:27:53.661Z,9.85
2023-02-11T06:30:20.888Z,7.78
2023-02-11T06:32:48.335Z,6.40
2023-02-11T06:35:15.796Z,9.48
2023-02-11T06:37:43.489Z,6.68
2023-02-11T06:40:11.999Z,5.45
2023-02-11T06:42:39.688Z,12.00
2023-02-11T06:45:09.660Z,10.85
2023-02-11T06:47:37.925Z,7.88
2023-02-11T06:50:07.951Z,12.13
2023-02-11T06:52:35.211Z,9.18
2023-02-11T06:55:02.743Z,9.80
2023-02-11T06:57:31.391Z,9.02
2023-02-11T06:59:58.624Z,8.02
2023-02-11T07:02:25.973Z,8.45
2023-02-11T07:04:53.160Z,13.63
2023-02-11T07:07:20.346Z,8.55
2023-02-11T07:09:47.563Z,6.15
2023-02-11T07:12:14.922Z,7.97
2023-02-11T07:14:42.734Z,4.30
2023-02-11T07:17:10.027Z,7.45
2023-02-11T07:19:37.313Z,7.93
2023-02-11T07:22:04.510Z,5.30
2023-02-11T07:24:31.716Z,5.13
2023-02-11T07:26:58.912Z,7.50
2023-02-11T07:29:26.100Z,7.00
2023-02-11T07:31:53.288Z,6.30
2023-02-11T07:34:20.634Z,8.18
2023-02-11T07:36:49.148Z,11.38
2023-02-11T07:39:16.575Z,5.93
2023-02-11T07:41:47.842Z,6.90
2023-02-11T07:44:15.750Z,5.28
2023-02-11T07:46:45.290Z,8.90
2023-02-11T07:49:12.887Z,7.80
2023-02-11T07:51:40.198Z,8.65
2023-02-11T07:54:07.482Z,8.60
2023-02-11T07:56:35.058Z,7.05
2023-02-11T07:59:03.590Z,8.82
2023-02-11T08:01:31.374Z,7.03
2023-02-11T08:04:00.554Z,6.75
2023-02-11T08:06:30.976Z,10.27
2023-02-11T08:08:58.876Z,5.43
2023-02-11T08:11:28.871Z,9.02
2023-02-11T08:13:57.300Z,2.53
2023-02-11T08:16:27.884Z,8.23
2023-02-11T08:18:57.884Z,4.43
2023-02-11T08:21:25.915Z,8.52
2023-02-11T08:23:53.508Z,7.28
2023-02-11T08:26:23.587Z,3.15
2023-02-11T08:28:52.654Z,5.10
2023-02-11T08:31:22.688Z,10.15
2023-02-11T08:33:50.586Z,5.75
2023-02-11T08:36:20.997Z,3.50
2023-02-11T08:38:48.363Z,4.22
2023-02-11T08:41:16.840Z,5.43
2023-02-11T08:43:45.617Z,4.90
2023-02-11T08:46:16.072Z,2.28
2023-02-11T08:48:44.008Z,4.57
2023-02-11T08:51:22.040Z,3.47
2023-02-11T08:53:49.478Z,10.50
2023-02-11T08:56:18.337Z,6.18
2023-02-11T08:58:46.224Z,6.32
2023-02-11T09:01:15.655Z,5.30
2023-02-11T09:03:42.954Z,3.67
2023-02-11T09:06:12.274Z,3.65
2023-02-11T09:08:46.319Z,5.72
2023-02-11T09:11:14.253Z,6.07
2023-02-11T09:13:42.996Z,3.10
2023-02-11T09:16:20.505Z,6.10
2023-02-11T09:18:48.683Z,5.13
2023-02-11T09:21:17.553Z,4.68
2023-02-11T09:23:47.720Z,1.38
2023-02-11T09:26:23.122Z,6.82
2023-02-11T09:28:51.427Z,3.00
2023-02-11T09:31:21.501Z,6.20
2023-02-11T09:33:51.365Z,6.90
2023-02-11T09:36:28.803Z,7.85
2023-02-11T09:38:58.624Z,3.03
2023-02-11T09:41:41.080Z,2.03
2023-02-11T09:44:21.301Z,1.95
2023-02-11T09:47:03.438Z,6.07
2023-02-11T09:49:46.911Z,5.40
2023-02-11T09:52:32.852Z,4.88
2023-02-11T09:55:11.776Z,4.40
2023-02-11T09:57:39.082Z,3.10
2023-02-11T10:00:24.310Z,2.13
2023-02-11T10:03:10.368Z,3.00
2023-02-11T10:06:11.548Z,2.72
2023-02-11T10:09:01.848Z,3.40
2023-02-11T10:11:41.447Z,4.88
2023-02-11T10:14:36.188Z,5.57
2023-02-11T10:17:27.716Z,5.70
2023-02-11T10:20:04.105Z,9.05
2023-02-11T10:22:37.872Z,1.52
2023-02-11T10:25:24.406Z,6.50
2023-02-11T10:27:54.710Z,4.75
2023-02-11T10:30:36.010Z,1.48
2023-02-11T10:33:27.632Z,5.85
2023-02-11T10:35:55.104Z,3.13
2023-02-11T10:38:22.384Z,1.65
2023-02-11T10:40:49.976Z,1.75
2023-02-11T10:43:19.442Z,13.25
2023-02-11T10:46:02.626Z,7.90
2023-02-11T10:48:39.810Z,1.58
2023-02-11T10:51:16.612Z,4.80
2023-02-11T10:53:44.985Z,3.08
2023-02-11T10:56:33.721Z,1.83
2023-02-11T10:59:04.873Z,2.13
2023-02-11T11:01:46.340Z,2.35
2023-02-11T11:04:45.015Z,6.85
2023-02-11T11:07:21.766Z,1.48
2023-02-11T11:09:55.650Z,1.35
2023-02-11T11:12:31.636Z,7.75
2023-02-11T11:15:10.780Z,4.28
2023-02-11T11:17:38.308Z,7.30
2023-02-11T11:20:28.199Z,4.38
2023-02-11T11:23:19.844Z,1.52
2023-02-11T11:26:04.145Z,9.30
2023-02-11T11:28:38.999Z,3.50
2023-02-11T11:31:19.190Z,4.68
2023-02-11T11:33:48.178Z,3.05
2023-02-11T11:36:22.953Z,3.67
2023-02-11T11:41:31.079Z,5.80
2023-02-11T11:44:03.144Z,1.67
2023-02-11T11:46:36.701Z,3.33
2023-02-11T11:49:13.742Z,4.53
2023-02-11T11:51:44.178Z,7.22
2023-02-11T11:54:18.444Z,4.97
2023-02-11T11:57:00.727Z,3.88
2023-02-11T11:59:28.545Z,7.00
2023-02-11T12:02:23.615Z,1.65
2023-02-11T12:05:14.891Z,4.25
2023-02-11T12:08:06.444Z,8.35
2023-02-11T12:10:52.888Z,8.90
2023-02-11T12:13:57.718Z,8.02
2023-02-11T12:17:03.523Z,6.65
2023-02-11T12:19:47.280Z,7.20
2023-02-11T12:23:11.490Z,1.75
2023-02-11T12:25:44.700Z,2.15
2023-02-11T12:28:34.865Z,4.13
2023-02-11T12:31:52.398Z,5.20
2023-02-11T12:34:33.208Z,4.28
2023-02-11T12:37:19.081Z,3.03
2023-02-11T12:40:07.455Z,6.85
2023-02-11T12:43:07.070Z,4.68
2023-02-11T12:46:04.157Z,4.47
2023-02-11T12:48:35.894Z,8.10
2023-02-11T12:51:12.187Z,5.43
2023-02-11T12:53:57.892Z,8.07
2023-02-11T12:56:36.176Z,6.28
2023-02-11T12:59:08.057Z,8.40
2023-02-11T13:01:44.004Z,4.55
2023-02-11T13:04:26.944Z,4.43
2023-02-11T13:07:06.474Z,4.68
2023-02-11T13:09:42.155Z,5.20
2023-02-11T13:12:31.754Z,3.58
2023-02-11T13:15:06.526Z,5.45
2023-02-11T13:18:04.550Z,3.63
2023-02-11T13:20:34.465Z,3.72
2023-02-11T13:23:40.556Z,2.95
2023-02-11T13:26:28.578Z,7.15
2023-02-11T13:29:21.779Z,6.05
2023-02-11T13:31:57.142Z,6.50
2023-02-11T13:34:27.582Z,6.38
2023-02-11T13:36:56.903Z,2.50
2023-02-11T13:39:24.658Z,5.80
2023-02-11T13:42:03.746Z,4.75
2023-02-11T13:44:34.819Z,2.97
2023-02-11T13:47:05.474Z,3.22
2023-02-11T13:49:42.262Z,2.60
2023-02-11T13:52:24.467Z,5.65
2023-02-11T13:54:54.670Z,9.00
2023-02-11T13:57:23.514Z,7.25
2023-02-11T13:59:55.731Z,3.92
2023-02-11T14:02:47.558Z,6.38
2023-02-11T14:05:45.523Z,5.70
2023-02-11T14:08:31.255Z,5.18
2023-02-11T14:11:10.934Z,3.45
2023-02-11T14:13:53.585Z,2.30
2023-02-11T14:16:36.363Z,4.40
2023-02-11T14:19:04.513Z,3.30
2023-02-11T14:21:38.191Z,6.45
2023-02-11T14:24:07.114Z,7.20
2023-02-11T14:26:52.883Z,4.03
2023-02-11T14:29:41.765Z,4.18
2023-02-11T14:32:17.945Z,5.68
2023-02-11T14:35:04.389Z,1.60
2023-02-11T14:38:07.104Z,7.57
2023-02-11T14:40:51.689Z,1.98
2023-02-11T14:43:24.374Z,6.47
2023-02-11T14:45:57.625Z,4.40
2023-02-11T14:48:35.251Z,5.13
2023-02-11T14:51:10.677Z,8.05
2023-02-11T14:53:44.382Z,12.68
2023-02-11T14:56:20.364Z,7.75
2023-02-11T14:58:49.749Z,3.70
2023-02-11T15:01:35.774Z,5.90
2023-02-11T15:04:05.672Z,7.85
2023-02-11T15:06:37.282Z,2.47
2023-02-11T15:09:05.812Z,5.80
2023-02-11T15:11:40.086Z,5.40
2023-02-11T15:14:11.172Z,6.38
2023-02-11T15:16:46.628Z,5.47
2023-02-11T15:19:20.250Z,6.20
2023-02-11T15:21:48.026Z,7.05
2023-02-11T15:24:30.591Z,4.57
2023-02-11T15:27:14.708Z,6.32
2023-02-11T15:29:46.225Z,4.17
2023-02-11T15:32:19.372Z,6.63
2023-02-11T15:34:48.675Z,3.20
2023-02-11T15:37:21.647Z,8.32
2023-02-11T15:39:49.639Z,4.55
2023-02-11T15:42:38.061Z,3.88
2023-02-11T15:45:14.493Z,6.03
2023-02-11T15:47:49.285Z,5.45
2023-02-11T15:50:28.218Z,4.05
2023-02-11T15:52:58.382Z,3.83
2023-02-11T15:55:27.054Z,5.85
2023-02-11T15:57:57.462Z,8.38
2023-02-11T16:00:32.579Z,5.57
2023-02-11T16:02:59.980Z,9.98
2023-02-11T16:05:37.270Z,5.93
2023-02-11T16:08:29.383Z,6.22
2023-02-11T16:11:08.903Z,12.57
2023-02-11T16:13:47.525Z,7.90
2023-02-11T16:16:27.613Z,5.97
2023-02-11T16:19:05.266Z,3.92
2023-02-11T16:21:42.464Z,5.93
2023-02-11T16:24:21.427Z,6.03
2023-02-11T16:26:53.386Z,3.95
2023-02-11T16:29:26.143Z,4.72
2023-02-11T16:31:55.208Z,11.35
2023-02-11T16:34:25.021Z,13.40
2023-02-11T16:36:53.231Z,6.72
2023-02-11T16:39:24.409Z,5.60
2023-02-11T16:41:52.505Z,7.68
2023-02-11T16:44:19.976Z,4.03
2023-02-11T16:46:47.736Z,2.50
2023-02-11T16:49:23.931Z,4.75
2023-02-11T16:51:53.450Z,3.75
2023-02-11T16:54:20.812Z,3.78
2023-02-11T16:56:48.396Z,8.90
2023-02-11T16:59:15.778Z,6.15
2023-02-11T17:01:45.099Z,6.53
2023-02-11T17:04:25.654Z,4.20
2023-02-11T17:06:52.993Z,3.38
2023-02-11T17:09:23.555Z,6.93
2023-02-11T17:11:51.483Z,5.97
2023-02-11T17:14:20.181Z,4.50
2023-02-11T17:16:49.375Z,4.18
2023-02-11T17:19:22.198Z,4.10
2023-02-11T17:21:51.970Z,6.07
2023-02-11T17:24:20.462Z,6.60
2023-02-11T17:26:48.539Z,5.65
2023-02-11T17:29:18.937Z,7.65
2023-02-11T17:31:46.614Z,3.70
2023-02-11T17:34:14.227Z,4.72
2023-02-11T17:36:41.497Z,6.05
2023-02-11T17:39:08.861Z,6.97
2023-02-11T17:41:39.705Z,5.47
2023-02-11T17:44:08.584Z,3.95
2023-02-11T17:46:36.216Z,5.55
2023-02-11T17:49:04.486Z,6.80
2023-02-11T17:51:34.411Z,3.92
2023-02-11T17:54:06.288Z,5.30
2023-02-11T17:56:34.922Z,6.05
2023-02-11T17:59:02.975Z,7.10
2023-02-11T18:01:32.129Z,6.68
2023-02-11T18:03:59.603Z,4.28
2023-02-11T18:06:29.119Z,6.03
2023-02-11T18:08:59.799Z,2.70
2023-02-11T18:11:27.998Z,2.25
2023-02-11T18:13:55.277Z,4.30
2023-02-11T18:16:23.986Z,3.63
2023-02-11T18:18:51.667Z,6.95
2023-02-11T18:21:20.773Z,5.35
2023-02-11T18:23:49.272Z,6.88
2023-02-11T18:26:18.532Z,4.65
2023-02-11T18:28:46.409Z,3.53
2023-02-11T18:31:14.409Z,4.43
2023-02-11T18:33:42.457Z,7.00
2023-02-11T18:36:12.488Z,10.07
2023-02-11T18:38:40.614Z,6.60
2023-02-11T18:41:08.297Z,10.18
2023-02-11T18:43:36.479Z,5.70
2023-02-11T18:46:08.796Z,5.53
2023-02-11T18:48:36.341Z,2.22
2023-02-11T18:51:11.923Z,5.93
2023-02-11T18:53:39.673Z,2.47
2023-02-11T18:56:12.262Z,8.13
2023-02-11T18:58:40.276Z,3.08
2023-02-11T19:01:16.267Z,6.20
2023-02-11T19:03:44.869Z,7.95
2023-02-11T19:06:20.926Z,6.22
2023-02-11T19:08:48.323Z,7.38
2023-02-11T19:11:17.962Z,4.10
2023-02-11T19:13:47.781Z,9.73
2023-02-11T19:16:16.946Z,3.92
2023-02-11T19:18:44.863Z,8.65
2023-02-11T19:21:12.766Z,5.85
2023-02-11T19:23:40.105Z,5.97
2023-02-11T19:26:07.638Z,7.50
2023-02-11T19:28:37.252Z,4.55
2023-02-11T19:31:09.088Z,5.13
2023-02-11T19:33:36.864Z,5.43
2023-02-11T19:36:07.679Z,4.28
2023-02-11T19:38:35.572Z,5.95
2023-02-11T19:41:03.209Z,4.40
2023-02-11T19:43:30.764Z,9.50
2023-02-11T19:45:58.613Z,4.57
2023-02-11T19:48:26.204Z,5.57
2023-02-11T19:50:53.509Z,8.63
2023-02-11T19:53:21.268Z,4.63
2023-02-11T19:55:48.986Z,6.57
2023-02-11T19:58:16.970Z,5.25
2023-02-11T20:00:44.265Z,5.68
2023-02-11T20:03:11.724Z,11.25
2023-02-11T20:05:47.042Z,5.68
2023-02-11T20:08:17.118Z,6.63
2023-02-11T20:10:44.646Z,12.38
2023-02-11T20:13:11.961Z,6.38
2023-02-11T20:15:39.806Z,6.10
2023-02-11T20:18:07.531Z,5.90
2023-02-11T20:20:34.795Z,6.70
2023-02-11T20:23:01.990Z,6.05
2023-02-11T20:25:29.406Z,8.60
2023-02-11T20:27:56.876Z,9.13
2023-02-11T20:30:24.359Z,8.82
2023-02-11T20:32:51.958Z,6.05
2023-02-11T20:35:19.260Z,5.95
2023-02-11T20:37:46.468Z,7.75
2023-02-11T20:40:13.925Z,6.25
2023-02-11T20:42:41.210Z,10.68
2023-02-11T20:45:09.095Z,12.13
2023-02-11T20:47:38.485Z,11.10
2023-02-11T20:50:06.648Z,11.82
2023-02-11T20:52:34.507Z,9.65
2023-02-11T20:55:01.881Z,12.73
2023-02-11T20:57:29.233Z,11.90
2023-02-11T20:59:56.577Z,11.50
2023-02-11T21:02:24.962Z,12.90
2023-02-11T21:04:52.479Z,9.80
2023-02-11T21:07:20.102Z,9.45
2023-02-11T21:09:47.453Z,12.52
2023-02-11T21:12:14.764Z,12.52
2023-02-11T21:14:42.106Z,11.23
2023-02-11T21:17:09.452Z,11.15
2023-02-11T21:19:36.612Z,10.70
2023-02-11T21:22:03.995Z,11.77
2023-02-11T21:24:31.237Z,9.10
2023-02-11T21:26:58.771Z,8.57
2023-02-11T21:29:26.259Z,10.23
2023-02-11T21:31:53.722Z,9.63
2023-02-11T21:34:21.320Z,8.05
2023-02-11T21:36:51.261Z,12.52
2023-02-11T21:39:20.343Z,9.75
2023-02-11T21:41:47.671Z,9.13
2023-02-11T21:44:15.153Z,9.48
2023-02-11T21:46:42.688Z,10.15
2023-02-11T21:49:10.707Z,13.05
2023-02-11T21:51:42.818Z,16.65
2023-02-11T21:54:12.401Z,13.50
2023-02-11T21:56:40.689Z,13.95
2023-02-11T21:59:08.099Z,15.43
2023-02-11T22:01:36.123Z,14.32
2023-02-11T22:04:04.170Z,14.18
2023-02-11T22:06:34.250Z,15.75
2023-02-11T22:09:07.245Z,12.73
2023-02-11T22:11:34.734Z,11.65
2023-02-11T22:14:04.534Z,10.88
2023-02-11T22:16:31.967Z,11.88
2023-02-11T22:19:02.347Z,13.70
2023-02-11T22:21:30.139Z,18.05
2023-02-11T22:23:57.587Z,13.23
2023-02-11T22:26:27.230Z,13.23
2023-02-11T22:28:55.422Z,16.30
2023-02-11T22:31:34.758Z,16.15
2023-02-11T22:34:04.215Z,12.25
2023-02-11T22:36:35.887Z,15.13
2023-02-11T22:39:06.234Z,15.82
2023-02-11T22:41:33.963Z,14.32
2023-02-11T22:44:01.335Z,12.90
2023-02-11T22:46:28.622Z,14.23
2023-02-11T22:48:56.044Z,14.25
2023-02-11T22:51:25.552Z,16.98
2023-02-11T22:53:54.866Z,16.17
2023-02-11T22:56:22.958Z,15.73
2023-02-11T22:58:51.096Z,10.80
2023-02-11T23:01:18.536Z,12.52
2023-02-11T23:03:46.381Z,14.85
2023-02-11T23:06:13.932Z,11.93
2023-02-11T23:08:42.994Z,9.85
2023-02-11T23:11:17.017Z,10.82
2023-02-11T23:13:46.249Z,14.10
2023-02-11T23:16:17.497Z,13.63
2023-02-11T23:18:55.545Z,15.55
2023-02-11T23:21:26.408Z,12.00
2023-02-11T23:24:02.589Z,17.45
2023-02-11T23:26:30.599Z,14.93
2023-02-11T23:28:59.181Z,12.30
2023-02-11T23:31:29.734Z,16.77
2023-02-11T23:33:57.115Z,13.73
2023-02-11T23:36:24.547Z,15.10
2023-02-11T23:38:51.949Z,12.10
2023-02-11T23:41:20.422Z,17.05
2023-02-11T23:43:52.848Z,14.52
2023-02-11T23:46:22.205Z,15.80
2023-02-11T23:48:50.494Z,13.00
2023-02-11T23:51:18.573Z,13.07
2023-02-11T23:53:46.353Z,11.13
2023-02-11T23:56:16.516Z,12.80
2023-02-11T23:58:44.857Z,15.70
